Aviation Digital Data Service (ADDS)

Output produced by METARs form (1549 UTC 23 August 2017)
found at http://aviationweather.gov/adds/metars/
 
KGFL 231123Z 2312/2412 23009KT P6SM SCT050 SCT100 
     FM231500 25011G20KT P6SM SCT050 
     FM232300 24006KT P6SM SCT050 SCT120 
     FM240200 VRB03KT P6SM SCT050 
     FM240800 00000KT 3SM BR SKC